createdAt,value
2022-11-12T00:01:18.065Z,3.63
2022-11-12T00:03:46.553Z,3.80
2022-11-12T00:06:14.741Z,3.23
2022-11-12T00:08:43.008Z,2.80
2022-11-12T00:11:12.258Z,2.53
2022-11-12T00:13:40.465Z,3.03
2022-11-12T00:16:10.197Z,2.17
2022-11-12T00:18:38.432Z,2.60
2022-11-12T00:21:07.771Z,2.10
2022-11-12T00:23:36.039Z,2.63
2022-11-12T00:26:04.308Z,2.33
2022-11-12T00:28:37.540Z,2.70
2022-11-12T00:31:13.452Z,2.20
2022-11-12T00:33:42.674Z,3.23
2022-11-12T00:36:10.963Z,3.63
2022-11-12T00:38:40.271Z,3.10
2022-11-12T00:41:08.571Z,2.80
2022-11-12T00:43:36.768Z,2.80
2022-11-12T00:46:04.989Z,2.60
2022-11-12T00:48:34.551Z,2.40
2022-11-12T00:51:03.790Z,2.43
2022-11-12T00:53:32.028Z,2.30
2022-11-12T00:56:03.543Z,2.10
2022-11-12T00:58:32.056Z,2.00
2022-11-12T01:01:00.323Z,2.03
2022-11-12T01:03:29.632Z,2.67
2022-11-12T01:06:04.608Z,2.03
2022-11-12T01:08:33.101Z,2.80
2022-11-12T01:11:06.603Z,2.60
2022-11-12T01:13:36.184Z,3.27
2022-11-12T01:16:09.514Z,3.07
2022-11-12T01:18:38.854Z,1.97
2022-11-12T01:21:09.077Z,2.57
2022-11-12T01:23:38.679Z,2.27
2022-11-12T01:26:07.318Z,2.70
2022-11-12T01:28:35.670Z,3.07
2022-11-12T01:31:11.700Z,2.30
2022-11-12T01:33:40.382Z,2.70
2022-11-12T01:36:10.506Z,2.70
2022-11-12T01:38:39.370Z,3.00
2022-11-12T01:41:08.937Z,3.20
2022-11-12T01:43:37.581Z,2.13
2022-11-12T01:46:08.739Z,2.67
2022-11-12T01:48:39.124Z,2.30
2022-11-12T01:51:08.627Z,2.90
2022-11-12T01:53:42.535Z,2.77
2022-11-12T01:56:10.926Z,2.57
2022-11-12T01:58:41.383Z,3.00
2022-11-12T02:01:09.649Z,2.60
2022-11-12T02:03:37.910Z,2.50
2022-11-12T02:06:08.336Z,3.53
2022-11-12T02:08:39.129Z,2.50
2022-11-12T02:11:14.976Z,2.40
2022-11-12T02:13:57.928Z,3.40
2022-11-12T02:16:26.884Z,2.80
2022-11-12T02:18:55.112Z,2.40
2022-11-12T02:21:25.138Z,2.90
2022-11-12T02:24:00.219Z,3.10
2022-11-12T02:26:32.256Z,3.60
2022-11-12T02:29:01.588Z,2.97
2022-11-12T02:31:29.838Z,3.50
2022-11-12T02:33:58.202Z,2.97
2022-11-12T02:36:28.428Z,2.90
2022-11-12T02:38:56.723Z,3.27
2022-11-12T02:41:25.217Z,2.70
2022-11-12T02:43:53.432Z,3.13
2022-11-12T02:46:21.621Z,3.17
2022-11-12T02:48:49.805Z,2.50
2022-11-12T02:51:18.006Z,3.93
2022-11-12T02:53:47.529Z,3.63
2022-11-12T02:56:15.929Z,2.90
2022-11-12T02:58:44.092Z,2.80
2022-11-12T03:01:12.319Z,2.93
2022-11-12T03:03:40.585Z,2.50
2022-11-12T03:06:10.316Z,1.87
2022-11-12T03:08:38.513Z,2.03
2022-11-12T03:11:12.148Z,2.70
2022-11-12T03:13:40.867Z,2.10
2022-11-12T03:16:09.562Z,1.80
2022-11-12T03:18:38.360Z,2.30
2022-11-12T03:21:06.741Z,1.87
2022-11-12T03:23:34.958Z,2.17
2022-11-12T03:26:04.460Z,2.30
2022-11-12T03:28:34.223Z,1.77
2022-11-12T03:31:02.987Z,2.40
2022-11-12T03:33:31.261Z,2.10
2022-11-12T03:35:59.560Z,2.87
2022-11-12T03:38:28.096Z,2.40
2022-11-12T03:40:57.743Z,2.70
2022-11-12T03:43:26.134Z,2.63
2022-11-12T03:45:55.685Z,2.03
2022-11-12T03:48:24.356Z,2.17
2022-11-12T03:50:53.836Z,2.10
2022-11-12T03:53:22.093Z,2.10
2022-11-12T03:55:50.555Z,1.80
2022-11-12T03:58:18.860Z,2.30
2022-11-12T04:00:47.110Z,2.17
2022-11-12T04:03:16.714Z,2.00
2022-11-12T04:06:02.803Z,2.00
2022-11-12T04:08:36.947Z,2.10
2022-11-12T04:11:06.131Z,2.07
2022-11-12T04:13:34.347Z,2.17
2022-11-12T04:16:26.753Z,2.60
2022-11-12T04:19:14.821Z,2.30
2022-11-12T04:21:54.699Z,2.37
2022-11-12T04:24:42.491Z,2.00
2022-11-12T04:27:11.432Z,3.10
2022-11-12T04:29:57.699Z,1.80
2022-11-12T04:32:26.424Z,1.60
2022-11-12T04:34:56.132Z,1.87
2022-11-12T04:37:24.932Z,1.70
2022-11-12T04:39:53.620Z,2.70
2022-11-12T04:42:45.076Z,1.90
2022-11-12T04:45:13.327Z,2.50
2022-11-12T04:47:43.971Z,2.20
2022-11-12T04:50:15.687Z,2.20
2022-11-12T04:52:43.909Z,2.10
2022-11-12T04:55:12.236Z,2.00
2022-11-12T04:57:40.499Z,2.27
2022-11-12T05:00:09.320Z,2.03
2022-11-12T05:02:37.558Z,1.70
2022-11-12T05:05:05.993Z,2.07
2022-11-12T05:07:35.659Z,1.80
2022-11-12T05:10:03.869Z,1.87
2022-11-12T05:12:32.064Z,1.67
2022-11-12T05:15:00.279Z,1.30
2022-11-12T05:17:28.668Z,1.30
2022-11-12T05:19:56.947Z,1.83
2022-11-12T05:22:42.761Z,1.80
2022-11-12T05:25:14.736Z,1.80
2022-11-12T05:27:43.021Z,1.60
2022-11-12T05:30:11.865Z,2.10
2022-11-12T05:32:40.077Z,1.93
2022-11-12T05:35:08.623Z,2.00
2022-11-12T05:37:36.883Z,2.03
2022-11-12T05:40:05.367Z,2.40
2022-11-12T05:42:34.903Z,2.10
2022-11-12T05:45:04.302Z,1.90
2022-11-12T05:47:33.611Z,1.60
2022-11-12T05:50:01.774Z,1.97
2022-11-12T05:52:30.003Z,2.20
2022-11-12T05:54:58.257Z,1.80
2022-11-12T05:57:28.476Z,2.17
2022-11-12T05:59:58.062Z,2.77
2022-11-12T06:02:26.349Z,2.10
2022-11-12T06:04:54.584Z,3.90
2022-11-12T06:07:22.820Z,3.70
2022-11-12T06:09:52.508Z,4.50
2022-11-12T06:12:20.767Z,4.53
2022-11-12T06:14:48.939Z,5.33
2022-11-12T06:17:18.626Z,5.00
2022-11-12T06:19:46.839Z,4.37
2022-11-12T06:22:17.134Z,4.03
2022-11-12T06:24:45.340Z,3.27
2022-11-12T06:27:15.829Z,2.97
2022-11-12T06:29:44.127Z,2.80
2022-11-12T06:32:12.380Z,2.43
2022-11-12T06:34:41.991Z,2.50
2022-11-12T06:37:10.228Z,2.80
2022-11-12T06:39:38.537Z,3.20
2022-11-12T06:42:06.809Z,3.40
2022-11-12T06:44:36.120Z,3.00
2022-11-12T06:47:04.482Z,2.97
2022-11-12T06:49:32.711Z,2.50
2022-11-12T06:52:02.760Z,2.47
2022-11-12T06:54:30.984Z,2.50
2022-11-12T06:56:59.235Z,2.50
2022-11-12T06:59:27.541Z,2.50
2022-11-12T07:01:55.930Z,2.80
2022-11-12T07:04:26.861Z,2.60
2022-11-12T07:06:57.453Z,2.67
2022-11-12T07:09:27.316Z,2.33
2022-11-12T07:11:55.938Z,3.03
2022-11-12T07:14:24.400Z,2.50
2022-11-12T07:16:54.085Z,2.13
2022-11-12T07:19:22.635Z,2.53
2022-11-12T07:21:50.867Z,3.17
2022-11-12T07:24:19.172Z,3.80
2022-11-12T07:26:48.839Z,4.07
2022-11-12T07:29:30.048Z,3.73
2022-11-12T07:32:05.721Z,3.23
2022-11-12T07:34:34.972Z,3.60
2022-11-12T07:37:03.201Z,3.43
2022-11-12T07:39:31.421Z,3.37
2022-11-12T07:42:01.345Z,3.77
2022-11-12T07:44:29.608Z,3.30
2022-11-12T07:46:58.231Z,2.90
2022-11-12T07:49:26.478Z,2.90
2022-11-12T07:51:55.072Z,3.00
2022-11-12T07:54:24.601Z,2.83
2022-11-12T07:56:52.763Z,3.67
2022-11-12T07:59:22.421Z,3.73
2022-11-12T08:01:50.700Z,3.83
2022-11-12T08:04:19.854Z,4.00
2022-11-12T08:06:49.249Z,3.57
2022-11-12T08:09:17.531Z,4.80
2022-11-12T08:11:46.141Z,3.87
2022-11-12T08:14:14.709Z,3.47
2022-11-12T08:16:44.379Z,3.40
2022-11-12T08:19:13.165Z,3.50
2022-11-12T08:21:41.399Z,3.23
2022-11-12T08:24:11.482Z,3.83
2022-11-12T08:26:39.734Z,3.93
2022-11-12T08:29:10.407Z,4.70
2022-11-12T08:31:38.941Z,4.23
2022-11-12T08:34:20.101Z,3.90
2022-11-12T08:36:50.700Z,4.10
2022-11-12T08:39:19.004Z,3.80
2022-11-12T08:41:47.255Z,2.97
2022-11-12T08:44:15.444Z,4.20
2022-11-12T08:46:45.701Z,3.50
2022-11-12T08:49:15.316Z,3.17
2022-11-12T08:51:43.524Z,3.70
2022-11-12T08:54:11.818Z,4.10
2022-11-12T08:56:40.009Z,4.50
2022-11-12T08:59:08.292Z,4.10
2022-11-12T09:01:36.621Z,4.63
2022-11-12T09:04:08.341Z,5.70
2022-11-12T09:06:37.990Z,4.77
2022-11-12T09:09:06.989Z,5.33
2022-11-12T09:11:35.224Z,5.50
2022-11-12T09:14:07.611Z,5.93
2022-11-12T09:16:36.193Z,5.77
2022-11-12T09:19:04.537Z,6.30
2022-11-12T09:21:33.848Z,8.13
2022-11-12T09:24:03.534Z,8.90
2022-11-12T09:26:31.746Z,8.77
2022-11-12T09:29:00.192Z,8.00
2022-11-12T09:31:28.544Z,7.37
2022-11-12T09:33:59.795Z,5.80
2022-11-12T09:36:29.262Z,4.50
2022-11-12T09:38:57.479Z,3.77
2022-11-12T09:41:28.908Z,3.87
2022-11-12T09:43:59.189Z,4.53
2022-11-12T09:46:30.475Z,4.17
2022-11-12T09:49:03.573Z,4.07
2022-11-12T09:51:34.276Z,3.40
2022-11-12T09:54:04.626Z,3.53
2022-11-12T09:56:36.421Z,3.50
2022-11-12T09:59:04.725Z,3.83
2022-11-12T10:01:42.725Z,3.87
2022-11-12T10:04:20.651Z,3.50
2022-11-12T10:06:54.722Z,2.77
2022-11-12T10:09:25.953Z,3.73
2022-11-12T10:12:20.373Z,3.00
2022-11-12T10:15:23.193Z,3.20
2022-11-12T10:17:52.428Z,3.30
2022-11-12T10:20:22.894Z,3.10
2022-11-12T10:23:08.425Z,3.00
2022-11-12T10:25:37.311Z,3.10
2022-11-12T10:28:14.414Z,3.10
2022-11-12T10:30:45.594Z,2.97
2022-11-12T10:33:15.851Z,2.90
2022-11-12T10:35:44.263Z,3.07
2022-11-12T10:38:16.254Z,3.57
2022-11-12T10:40:44.538Z,3.33
2022-11-12T10:43:24.041Z,3.33
2022-11-12T10:45:54.350Z,3.43
2022-11-12T10:48:29.318Z,3.37
2022-11-12T10:50:58.190Z,3.03
2022-11-12T10:53:32.761Z,2.83
2022-11-12T10:56:03.119Z,2.80
2022-11-12T10:58:32.696Z,2.63
2022-11-12T11:01:02.220Z,2.90
2022-11-12T11:03:31.731Z,2.80
2022-11-12T11:06:02.384Z,2.27
2022-11-12T11:08:36.377Z,2.00
2022-11-12T11:11:27.423Z,2.67
2022-11-12T11:13:57.786Z,1.90
2022-11-12T11:16:27.108Z,2.70
2022-11-12T11:18:57.597Z,2.00
2022-11-12T11:21:44.449Z,2.13
2022-11-12T11:24:27.328Z,1.40
2022-11-12T11:27:00.833Z,1.37
2022-11-12T11:29:51.364Z,1.50
2022-11-12T11:32:25.571Z,1.27
2022-11-12T11:34:59.680Z,1.00
2022-11-12T11:37:29.153Z,1.33
2022-11-12T11:40:03.677Z,1.30
2022-11-12T11:42:42.464Z,1.23
2022-11-12T11:45:17.155Z,1.20
2022-11-12T11:48:01.201Z,1.80
2022-11-12T11:50:31.061Z,1.23
2022-11-12T11:53:07.620Z,1.30
2022-11-12T11:55:49.394Z,1.43
2022-11-12T11:58:23.740Z,1.60
2022-11-12T12:00:57.792Z,1.63
2022-11-12T12:03:32.929Z,1.20
2022-11-12T12:06:11.679Z,1.30
2022-11-12T12:08:46.787Z,1.40
2022-11-12T12:11:17.896Z,1.13
2022-11-12T12:13:53.614Z,1.53
2022-11-12T12:16:28.343Z,2.83
2022-11-12T12:19:00.857Z,2.50
2022-11-12T12:21:32.605Z,2.50
2022-11-12T12:24:03.569Z,1.80
2022-11-12T12:26:37.511Z,1.97
2022-11-12T12:29:09.993Z,1.93
2022-11-12T12:31:42.221Z,1.80
2022-11-12T12:34:22.050Z,1.53
2022-11-12T12:36:51.825Z,1.50
2022-11-12T12:39:20.822Z,2.57
2022-11-12T12:41:53.581Z,2.97
2022-11-12T12:44:22.180Z,3.27
2022-11-12T12:46:55.671Z,2.63
2022-11-12T12:49:27.643Z,2.67
2022-11-12T12:51:56.214Z,2.80
2022-11-12T12:54:43.144Z,2.83
2022-11-12T12:57:27.435Z,3.80
2022-11-12T13:00:21.468Z,3.90
2022-11-12T13:02:51.096Z,3.47
2022-11-12T13:05:26.462Z,3.00
2022-11-12T13:07:55.486Z,4.60
2022-11-12T13:10:35.751Z,4.10
2022-11-12T13:13:05.052Z,5.60
2022-11-12T13:15:43.232Z,5.10
2022-11-12T13:18:27.242Z,4.00
2022-11-12T13:21:09.536Z,4.03
2022-11-12T13:24:06.685Z,3.83
2022-11-12T13:26:45.462Z,4.40
2022-11-12T13:29:20.658Z,3.70
2022-11-12T13:31:48.856Z,4.00
2022-11-12T13:34:23.219Z,3.93
2022-11-12T13:36:58.303Z,3.23
2022-11-12T13:39:27.792Z,3.40
2022-11-12T13:42:16.935Z,4.00
2022-11-12T13:44:45.648Z,3.60
2022-11-12T13:47:15.401Z,3.50
2022-11-12T13:49:45.732Z,2.73
2022-11-12T13:52:16.033Z,4.47
2022-11-12T13:54:44.473Z,4.40
2022-11-12T13:57:16.385Z,4.03
2022-11-12T13:59:44.832Z,3.73
2022-11-12T14:02:19.776Z,2.87
2022-11-12T14:04:49.408Z,3.83
2022-11-12T14:07:33.759Z,3.37
2022-11-12T14:10:03.992Z,4.20
2022-11-12T14:12:37.673Z,3.43
2022-11-12T14:15:12.332Z,3.90
2022-11-12T14:17:44.401Z,3.53
2022-11-12T14:20:26.013Z,3.20
2022-11-12T14:22:55.395Z,3.80
2022-11-12T14:25:24.648Z,5.67
2022-11-12T14:27:53.629Z,5.50
2022-11-12T14:30:24.292Z,5.33
2022-11-12T14:32:53.835Z,4.53
2022-11-12T14:35:28.473Z,4.27
2022-11-12T14:37:58.976Z,4.80
2022-11-12T14:40:28.166Z,4.80
2022-11-12T14:42:57.721Z,5.00
2022-11-12T14:45:27.320Z,3.93
2022-11-12T14:47:58.775Z,4.07
2022-11-12T14:50:34.537Z,3.70
2022-11-12T14:53:08.110Z,4.57
2022-11-12T14:55:37.865Z,5.33
2022-11-12T14:58:06.616Z,6.57
2022-11-12T15:00:39.568Z,6.37
2022-11-12T15:03:08.639Z,5.27
2022-11-12T15:05:53.882Z,5.17
2022-11-12T15:08:30.038Z,4.20
2022-11-12T15:10:58.956Z,4.70
2022-11-12T15:13:30.034Z,4.23
2022-11-12T15:16:01.369Z,4.57
2022-11-12T15:18:31.009Z,4.83
2022-11-12T15:21:08.532Z,4.80
2022-11-12T15:23:37.100Z,4.00
2022-11-12T15:26:26.384Z,5.30
2022-11-12T15:29:01.084Z,5.27
2022-11-12T15:31:29.312Z,5.60
2022-11-12T15:34:17.535Z,5.60
2022-11-12T15:36:47.087Z,4.67
2022-11-12T15:39:15.956Z,5.30
2022-11-12T15:41:44.195Z,5.20
2022-11-12T15:44:12.887Z,5.80
2022-11-12T15:46:41.117Z,5.47
2022-11-12T15:49:13.539Z,5.23
2022-11-12T15:51:41.764Z,5.20
2022-11-12T15:54:11.505Z,7.73
2022-11-12T15:56:39.718Z,5.93
2022-11-12T15:59:07.953Z,6.10
2022-11-12T16:01:36.170Z,6.30
2022-11-12T16:04:04.401Z,5.83
2022-11-12T16:06:33.720Z,5.80
2022-11-12T16:09:01.893Z,5.40
2022-11-12T16:11:37.317Z,7.50
2022-11-12T16:14:06.300Z,4.23
2022-11-12T16:16:34.580Z,8.37
2022-11-12T16:19:02.763Z,7.57
2022-11-12T16:21:30.963Z,7.00
2022-11-12T16:23:59.163Z,7.37
2022-11-12T16:26:30.942Z,8.70
2022-11-12T16:29:00.900Z,6.20
2022-11-12T16:31:29.100Z,6.00
2022-11-12T16:33:57.298Z,5.80
2022-11-12T16:36:25.560Z,5.80
2022-11-12T16:38:53.930Z,5.47
2022-11-12T16:41:22.153Z,5.93
2022-11-12T16:43:50.331Z,6.13
2022-11-12T16:46:24.674Z,6.80
2022-11-12T16:48:52.976Z,6.90
2022-11-12T16:51:21.902Z,7.20
2022-11-12T16:53:50.494Z,8.10
2022-11-12T16:56:19.423Z,10.47
2022-11-12T16:58:48.439Z,10.40
2022-11-12T17:01:24.079Z,12.47
2022-11-12T17:03:54.022Z,10.97
2022-11-12T17:06:22.246Z,11.53
2022-11-12T17:08:50.608Z,10.50
2022-11-12T17:11:19.037Z,11.60
2022-11-12T17:13:47.265Z,11.40
2022-11-12T17:16:16.794Z,11.97
2022-11-12T17:18:44.997Z,10.77
2022-11-12T17:21:16.333Z,9.00
2022-11-12T17:23:44.611Z,11.20
2022-11-12T17:26:13.524Z,8.50
2022-11-12T17:28:41.829Z,8.43
2022-11-12T17:31:11.891Z,7.40
2022-11-12T17:33:41.228Z,9.20
2022-11-12T17:36:11.033Z,7.87
2022-11-12T17:38:40.640Z,7.90
2022-11-12T17:41:09.933Z,7.67
2022-11-12T17:43:38.208Z,5.17
2022-11-12T17:46:07.122Z,5.80
2022-11-12T17:48:36.421Z,4.83
2022-11-12T17:51:09.112Z,4.53
2022-11-12T17:53:37.357Z,3.60
2022-11-12T17:56:07.598Z,4.20
2022-11-12T17:58:37.155Z,4.23
2022-11-12T18:01:06.545Z,4.90
2022-11-12T18:03:34.827Z,4.47
2022-11-12T18:06:03.232Z,4.60
2022-11-12T18:08:31.516Z,3.00
2022-11-12T18:11:00.683Z,4.60
2022-11-12T18:13:30.492Z,4.30
2022-11-12T18:15:59.655Z,5.13
2022-11-12T18:18:28.470Z,3.57
2022-11-12T18:20:57.000Z,4.40
2022-11-12T18:23:27.307Z,4.30
2022-11-12T18:25:55.643Z,4.77
2022-11-12T18:28:23.851Z,4.40
2022-11-12T18:30:53.425Z,4.30
2022-11-12T18:33:21.634Z,4.37
2022-11-12T18:35:49.810Z,3.43
2022-11-12T18:38:18.034Z,3.50
2022-11-12T18:40:46.293Z,3.90
2022-11-12T18:43:14.503Z,3.90
2022-11-12T18:45:42.669Z,3.27
2022-11-12T18:48:12.223Z,3.00
2022-11-12T18:50:40.718Z,3.70
2022-11-12T18:53:08.906Z,4.10
2022-11-12T18:55:37.098Z,3.90
2022-11-12T18:58:05.280Z,4.20
2022-11-12T19:00:33.471Z,4.07
2022-11-12T19:03:01.673Z,3.70
2022-11-12T19:05:31.423Z,3.40
2022-11-12T19:08:00.114Z,3.50
2022-11-12T19:10:28.461Z,5.37
2022-11-12T19:12:57.052Z,6.20
2022-11-12T19:15:27.002Z,6.43
2022-11-12T19:17:55.473Z,5.90
2022-11-12T19:20:25.749Z,6.87
2022-11-12T19:22:58.113Z,6.10
2022-11-12T19:25:26.329Z,5.60
2022-11-12T19:27:55.022Z,6.33
2022-11-12T19:30:23.237Z,7.60
2022-11-12T19:32:51.446Z,8.13
2022-11-12T19:35:19.632Z,10.43
2022-11-12T19:37:47.841Z,9.17
2022-11-12T19:40:17.748Z,10.10
2022-11-12T19:42:48.008Z,10.07
2022-11-12T19:45:17.377Z,9.80
2022-11-12T19:47:46.293Z,9.60
2022-11-12T19:50:14.528Z,9.97
2022-11-12T19:52:42.734Z,10.93
2022-11-12T19:55:11.150Z,10.10
2022-11-12T19:57:40.677Z,9.73
2022-11-12T20:00:11.062Z,10.93
2022-11-12T20:02:39.292Z,12.30
2022-11-12T20:05:07.939Z,14.50
2022-11-12T20:07:36.289Z,14.30
2022-11-12T20:10:04.818Z,11.67
2022-11-12T20:12:33.152Z,11.30
2022-11-12T20:15:03.181Z,10.70
2022-11-12T20:17:33.310Z,9.50
2022-11-12T20:20:02.634Z,11.33
2022-11-12T20:22:33.070Z,12.40
2022-11-12T20:25:01.727Z,10.20
2022-11-12T20:27:30.037Z,9.40
2022-11-12T20:29:58.337Z,14.83
2022-11-12T20:32:27.888Z,13.77
2022-11-12T20:34:56.098Z,17.10
2022-11-12T20:37:24.908Z,11.93
2022-11-12T20:39:53.228Z,12.73
2022-11-12T20:42:22.452Z,11.83
2022-11-12T20:44:51.880Z,11.83
2022-11-12T20:47:20.096Z,12.17
2022-11-12T20:49:49.927Z,9.70
2022-11-12T20:52:18.566Z,12.30
2022-11-12T20:54:46.798Z,11.63
2022-11-12T20:57:15.077Z,10.33
2022-11-12T20:59:43.302Z,8.10
2022-11-12T21:02:11.620Z,15.03
2022-11-12T21:04:39.852Z,14.90
2022-11-12T21:07:09.439Z,16.17
2022-11-12T21:09:37.675Z,17.60
2022-11-12T21:12:06.036Z,14.40
2022-11-12T21:14:34.244Z,16.13
2022-11-12T21:17:02.589Z,14.80
2022-11-12T21:19:30.801Z,14.80
2022-11-12T21:21:59.076Z,14.00
2022-11-12T21:24:28.751Z,13.80
2022-11-12T21:26:57.189Z,14.40
2022-11-12T21:29:25.773Z,13.20
2022-11-12T21:31:54.087Z,14.40
2022-11-12T21:34:22.324Z,13.73
2022-11-12T21:36:50.784Z,15.33
2022-11-12T21:39:19.049Z,13.43
2022-11-12T21:41:48.800Z,13.23
2022-11-12T21:44:18.149Z,12.57
2022-11-12T21:46:46.569Z,12.17
2022-11-12T21:49:14.903Z,12.90
2022-11-12T21:51:43.112Z,8.67
2022-11-12T21:54:11.852Z,13.40
2022-11-12T21:56:42.010Z,13.10
2022-11-12T21:59:11.594Z,13.83
2022-11-12T22:01:40.499Z,14.07
2022-11-12T22:04:10.949Z,14.87
2022-11-12T22:06:42.467Z,11.60
2022-11-12T22:09:10.707Z,13.80
2022-11-12T22:11:39.992Z,13.33
2022-11-12T22:14:08.227Z,9.67
2022-11-12T22:16:38.252Z,12.10
2022-11-12T22:19:06.484Z,10.20
2022-11-12T22:21:39.768Z,8.27
2022-11-12T22:24:11.883Z,9.97
2022-11-12T22:26:40.096Z,9.13
2022-11-12T22:29:09.579Z,10.57
2022-11-12T22:31:40.204Z,9.67
2022-11-12T22:34:08.468Z,10.00
2022-11-12T22:36:36.852Z,10.43
2022-11-12T22:39:06.579Z,10.70
2022-11-12T22:41:35.079Z,9.57
2022-11-12T22:44:05.261Z,10.20
2022-11-12T22:46:34.521Z,9.50
2022-11-12T22:49:05.067Z,8.97
2022-11-12T22:51:35.375Z,9.20
2022-11-12T22:54:05.791Z,7.57
2022-11-12T22:56:34.489Z,7.80
2022-11-12T22:59:03.451Z,8.90
2022-11-12T23:01:32.844Z,7.97
2022-11-12T23:04:02.995Z,8.27
2022-11-12T23:06:32.851Z,8.60
2022-11-12T23:09:01.447Z,8.40
2022-11-12T23:11:29.804Z,8.80
2022-11-12T23:13:58.021Z,9.60
2022-11-12T23:16:27.102Z,9.87
2022-11-12T23:18:55.303Z,10.30
2022-11-12T23:21:24.444Z,7.47
2022-11-12T23:23:54.462Z,8.00
2022-11-12T23:26:24.382Z,8.53
2022-11-12T23:28:53.049Z,10.00
2022-11-12T23:31:22.036Z,6.50
2022-11-12T23:33:50.994Z,5.97
2022-11-12T23:36:20.465Z,6.50
2022-11-12T23:38:48.671Z,5.93
2022-11-12T23:41:19.726Z,5.80
2022-11-12T23:43:48.139Z,4.90
2022-11-12T23:46:17.461Z,4.90
2022-11-12T23:48:45.670Z,5.43
2022-11-12T23:51:15.386Z,5.83
2022-11-12T23:53:43.616Z,4.87
2022-11-12T23:56:13.172Z,5.03
2022-11-12T23:58:44.067Z,5.17
